sensor_id;sensor_type;location;lat;lon;timestamp;P1;durP1;ratioP1;P2;durP2;ratioP2
23628;SDS011;11991;57.150;-2.134;2024-03-06T00:00:16;5.00;;;2.65;;
23628;SDS011;11991;57.150;-2.134;2024-03-06T00:02:44;6.78;;;3.50;;
23628;SDS011;11991;57.150;-2.134;2024-03-06T00:05:11;5.53;;;3.28;;
23628;SDS011;11991;57.150;-2.134;2024-03-06T00:07:39;3.65;;;2.47;;
23628;SDS011;11991;57.150;-2.134;2024-03-06T00:10:06;3.75;;;2.90;;
23628;SDS011;11991;57.150;-2.134;2024-03-06T00:12:34;6.13;;;3.63;;
23628;SDS011;11991;57.150;-2.134;2024-03-06T00:15:01;6.93;;;3.17;;
23628;SDS011;11991;57.150;-2.134;2024-03-06T00:17:29;7.07;;;4.43;;
23628;SDS011;11991;57.150;-2.134;2024-03-06T00:19:56;6.47;;;3.53;;
23628;SDS011;11991;57.150;-2.134;2024-03-06T00:22:23;7.03;;;3.35;;
23628;SDS011;11991;57.150;-2.134;2024-03-06T00:24:51;3.90;;;2.88;;
23628;SDS011;11991;57.150;-2.134;2024-03-06T00:27:18;6.38;;;3.60;;
23628;SDS011;11991;57.150;-2.134;2024-03-06T00:29:46;7.05;;;4.35;;
23628;SDS011;11991;57.150;-2.134;2024-03-06T00:32:13;7.38;;;3.42;;
23628;SDS011;11991;57.150;-2.134;2024-03-06T00:34:41;6.15;;;3.38;;
23628;SDS011;11991;57.150;-2.134;2024-03-06T00:37:08;7.03;;;3.53;;
23628;SDS011;11991;57.150;-2.134;2024-03-06T00:39:35;7.05;;;4.72;;
23628;SDS011;11991;57.150;-2.134;2024-03-06T00:42:02;10.48;;;3.85;;
23628;SDS011;11991;57.150;-2.134;2024-03-06T00:44:29;8.30;;;4.22;;
23628;SDS011;11991;57.150;-2.134;2024-03-06T00:46:57;7.07;;;4.32;;
23628;SDS011;11991;57.150;-2.134;2024-03-06T00:49:24;7.22;;;3.85;;
23628;SDS011;11991;57.150;-2.134;2024-03-06T00:51:51;9.07;;;4.25;;
23628;SDS011;11991;57.150;-2.134;2024-03-06T00:54:18;7.63;;;4.57;;
23628;SDS011;11991;57.150;-2.134;2024-03-06T00:56:45;7.82;;;3.42;;
23628;SDS011;11991;57.150;-2.134;2024-03-06T00:59:13;9.93;;;4.97;;
23628;SDS011;11991;57.150;-2.134;2024-03-06T01:01:40;11.75;;;5.30;;
23628;SDS011;11991;57.150;-2.134;2024-03-06T01:04:08;7.18;;;4.22;;
23628;SDS011;11991;57.150;-2.134;2024-03-06T01:06:35;10.05;;;4.10;;
23628;SDS011;11991;57.150;-2.134;2024-03-06T01:09:02;10.88;;;4.55;;
23628;SDS011;11991;57.150;-2.134;2024-03-06T01:11:29;8.20;;;3.65;;
23628;SDS011;11991;57.150;-2.134;2024-03-06T01:13:56;11.68;;;3.75;;
23628;SDS011;11991;57.150;-2.134;2024-03-06T01:16:24;5.10;;;2.85;;
23628;SDS011;11991;57.150;-2.134;2024-03-06T01:18:51;6.30;;;2.88;;
23628;SDS011;11991;57.150;-2.134;2024-03-06T01:21:18;10.02;;;3.53;;
23628;SDS011;11991;57.150;-2.134;2024-03-06T01:23:45;7.03;;;3.80;;
23628;SDS011;11991;57.150;-2.134;2024-03-06T01:26:13;5.53;;;3.15;;
23628;SDS011;11991;57.150;-2.134;2024-03-06T01:28:40;5.13;;;3.45;;
23628;SDS011;11991;57.150;-2.134;2024-03-06T01:31:07;9.25;;;3.97;;
23628;SDS011;11991;57.150;-2.134;2024-03-06T01:33:35;8.98;;;3.45;;
23628;SDS011;11991;57.150;-2.134;2024-03-06T01:36:02;10.75;;;3.50;;
23628;SDS011;11991;57.150;-2.134;2024-03-06T01:38:31;14.85;;;5.55;;
23628;SDS011;11991;57.150;-2.134;2024-03-06T01:40:58;8.45;;;3.88;;
23628;SDS011;11991;57.150;-2.134;2024-03-06T01:43:25;10.40;;;4.72;;
23628;SDS011;11991;57.150;-2.134;2024-03-06T01:45:53;6.88;;;3.47;;
23628;SDS011;11991;57.150;-2.134;2024-03-06T01:48:27;10.52;;;3.80;;
23628;SDS011;11991;57.150;-2.134;2024-03-06T01:50:56;5.28;;;3.03;;
23628;SDS011;11991;57.150;-2.134;2024-03-06T01:53:27;7.97;;;4.40;;
23628;SDS011;11991;57.150;-2.134;2024-03-06T01:55:56;6.63;;;3.75;;
23628;SDS011;11991;57.150;-2.134;2024-03-06T01:58:24;3.95;;;2.47;;
23628;SDS011;11991;57.150;-2.134;2024-03-06T02:00:51;5.38;;;3.42;;
23628;SDS011;11991;57.150;-2.134;2024-03-06T02:03:20;6.95;;;3.45;;
23628;SDS011;11991;57.150;-2.134;2024-03-06T02:05:51;10.85;;;4.13;;
23628;SDS011;11991;57.150;-2.134;2024-03-06T02:08:19;11.10;;;4.93;;
23628;SDS011;11991;57.150;-2.134;2024-03-06T02:10:46;8.75;;;4.85;;
23628;SDS011;11991;57.150;-2.134;2024-03-06T02:13:14;10.43;;;4.97;;
23628;SDS011;11991;57.150;-2.134;2024-03-06T02:15:41;10.85;;;5.47;;
23628;SDS011;11991;57.150;-2.134;2024-03-06T02:18:10;7.30;;;3.83;;
23628;SDS011;11991;57.150;-2.134;2024-03-06T02:20:38;10.98;;;5.00;;
23628;SDS011;11991;57.150;-2.134;2024-03-06T02:23:07;12.43;;;5.13;;
23628;SDS011;11991;57.150;-2.134;2024-03-06T02:25:34;5.22;;;3.15;;
23628;SDS011;11991;57.150;-2.134;2024-03-06T02:28:02;10.80;;;4.85;;
23628;SDS011;11991;57.150;-2.134;2024-03-06T02:30:30;14.45;;;6.25;;
23628;SDS011;11991;57.150;-2.134;2024-03-06T02:33:03;8.43;;;4.57;;
23628;SDS011;11991;57.150;-2.134;2024-03-06T02:35:32;6.88;;;3.85;;
23628;SDS011;11991;57.150;-2.134;2024-03-06T02:37:59;8.13;;;3.92;;
23628;SDS011;11991;57.150;-2.134;2024-03-06T02:40:27;5.93;;;3.13;;
23628;SDS011;11991;57.150;-2.134;2024-03-06T02:42:55;7.00;;;4.65;;
23628;SDS011;11991;57.150;-2.134;2024-03-06T02:45:22;7.90;;;3.97;;
23628;SDS011;11991;57.150;-2.134;2024-03-06T02:47:49;10.93;;;4.68;;
23628;SDS011;11991;57.150;-2.134;2024-03-06T02:50:17;10.77;;;4.63;;
23628;SDS011;11991;57.150;-2.134;2024-03-06T02:52:44;5.70;;;3.55;;
23628;SDS011;11991;57.150;-2.134;2024-03-06T02:55:11;11.85;;;4.93;;
23628;SDS011;11991;57.150;-2.134;2024-03-06T02:57:39;7.82;;;3.75;;
23628;SDS011;11991;57.150;-2.134;2024-03-06T03:00:06;7.57;;;4.47;;
23628;SDS011;11991;57.150;-2.134;2024-03-06T03:02:39;8.32;;;3.92;;
23628;SDS011;11991;57.150;-2.134;2024-03-06T03:05:06;8.48;;;4.32;;
23628;SDS011;11991;57.150;-2.134;2024-03-06T03:07:34;9.90;;;5.20;;
23628;SDS011;11991;57.150;-2.134;2024-03-06T03:10:02;7.40;;;3.60;;
23628;SDS011;11991;57.150;-2.134;2024-03-06T03:12:31;10.27;;;4.88;;
23628;SDS011;11991;57.150;-2.134;2024-03-06T03:14:58;5.15;;;3.47;;
23628;SDS011;11991;57.150;-2.134;2024-03-06T03:17:26;8.80;;;4.38;;
23628;SDS011;11991;57.150;-2.134;2024-03-06T03:19:53;8.23;;;4.13;;
23628;SDS011;11991;57.150;-2.134;2024-03-06T03:22:20;6.55;;;3.47;;
23628;SDS011;11991;57.150;-2.134;2024-03-06T03:24:47;10.73;;;5.70;;
23628;SDS011;11991;57.150;-2.134;2024-03-06T03:27:15;12.60;;;6.03;;
23628;SDS011;11991;57.150;-2.134;2024-03-06T03:29:42;5.85;;;3.15;;
23628;SDS011;11991;57.150;-2.134;2024-03-06T03:32:09;5.00;;;2.92;;
23628;SDS011;11991;57.150;-2.134;2024-03-06T03:34:36;3.08;;;2.40;;
23628;SDS011;11991;57.150;-2.134;2024-03-06T03:37:03;10.32;;;5.43;;
23628;SDS011;11991;57.150;-2.134;2024-03-06T03:39:30;9.85;;;5.05;;
23628;SDS011;11991;57.150;-2.134;2024-03-06T03:41:58;11.25;;;5.32;;
23628;SDS011;11991;57.150;-2.134;2024-03-06T03:44:25;10.25;;;4.22;;
23628;SDS011;11991;57.150;-2.134;2024-03-06T03:46:52;7.65;;;4.38;;
23628;SDS011;11991;57.150;-2.134;2024-03-06T03:49:19;6.57;;;4.10;;
23628;SDS011;11991;57.150;-2.134;2024-03-06T03:51:46;8.85;;;4.22;;
23628;SDS011;11991;57.150;-2.134;2024-03-06T03:54:13;7.97;;;4.78;;
23628;SDS011;11991;57.150;-2.134;2024-03-06T03:56:42;14.07;;;5.65;;
23628;SDS011;11991;57.150;-2.134;2024-03-06T03:59:09;6.90;;;4.45;;
23628;SDS011;11991;57.150;-2.134;2024-03-06T04:01:36;12.88;;;6.25;;
23628;SDS011;11991;57.150;-2.134;2024-03-06T04:04:04;13.73;;;6.50;;
23628;SDS011;11991;57.150;-2.134;2024-03-06T04:06:31;11.63;;;5.25;;
23628;SDS011;11991;57.150;-2.134;2024-03-06T04:08:58;16.88;;;7.68;;
23628;SDS011;11991;57.150;-2.134;2024-03-06T04:11:25;11.70;;;6.22;;
23628;SDS011;11991;57.150;-2.134;2024-03-06T04:13:53;9.90;;;4.05;;
23628;SDS011;11991;57.150;-2.134;2024-03-06T04:16:20;8.65;;;4.72;;
23628;SDS011;11991;57.150;-2.134;2024-03-06T04:18:47;12.95;;;6.80;;
23628;SDS011;11991;57.150;-2.134;2024-03-06T04:21:14;6.80;;;4.22;;
23628;SDS011;11991;57.150;-2.134;2024-03-06T04:23:43;8.68;;;4.45;;
23628;SDS011;11991;57.150;-2.134;2024-03-06T04:26:10;15.63;;;6.68;;
23628;SDS011;11991;57.150;-2.134;2024-03-06T04:28:38;9.88;;;5.03;;
23628;SDS011;11991;57.150;-2.134;2024-03-06T04:31:06;15.73;;;6.53;;
23628;SDS011;11991;57.150;-2.134;2024-03-06T04:33:33;10.82;;;4.80;;
23628;SDS011;11991;57.150;-2.134;2024-03-06T04:36:04;15.15;;;6.50;;
23628;SDS011;11991;57.150;-2.134;2024-03-06T04:38:35;12.63;;;6.47;;
23628;SDS011;11991;57.150;-2.134;2024-03-06T04:41:02;8.88;;;4.85;;
23628;SDS011;11991;57.150;-2.134;2024-03-06T04:43:31;11.95;;;6.07;;
23628;SDS011;11991;57.150;-2.134;2024-03-06T04:45:58;16.17;;;6.75;;
23628;SDS011;11991;57.150;-2.134;2024-03-06T04:48:25;11.38;;;4.93;;
23628;SDS011;11991;57.150;-2.134;2024-03-06T04:50:53;14.77;;;8.30;;
23628;SDS011;11991;57.150;-2.134;2024-03-06T04:53:20;13.10;;;6.50;;
23628;SDS011;11991;57.150;-2.134;2024-03-06T04:55:47;15.85;;;8.63;;
23628;SDS011;11991;57.150;-2.134;2024-03-06T04:58:14;9.55;;;5.95;;
23628;SDS011;11991;57.150;-2.134;2024-03-06T05:00:41;11.93;;;6.07;;
23628;SDS011;11991;57.150;-2.134;2024-03-06T05:03:08;12.30;;;6.38;;
23628;SDS011;11991;57.150;-2.134;2024-03-06T05:05:53;9.77;;;5.57;;
23628;SDS011;11991;57.150;-2.134;2024-03-06T05:08:38;9.82;;;5.10;;
23628;SDS011;11991;57.150;-2.134;2024-03-06T05:11:23;7.68;;;4.32;;
23628;SDS011;11991;57.150;-2.134;2024-03-06T05:14:07;6.78;;;4.30;;
23628;SDS011;11991;57.150;-2.134;2024-03-06T05:16:52;12.45;;;6.18;;
23628;SDS011;11991;57.150;-2.134;2024-03-06T05:19:37;6.88;;;4.43;;
23628;SDS011;11991;57.150;-2.134;2024-03-06T05:22:21;12.75;;;6.38;;
23628;SDS011;11991;57.150;-2.134;2024-03-06T05:25:07;8.82;;;4.32;;
23628;SDS011;11991;57.150;-2.134;2024-03-06T05:27:52;15.57;;;8.00;;
23628;SDS011;11991;57.150;-2.134;2024-03-06T05:30:37;12.25;;;5.93;;
23628;SDS011;11991;57.150;-2.134;2024-03-06T05:33:21;9.55;;;5.88;;
23628;SDS011;11991;57.150;-2.134;2024-03-06T05:36:06;8.05;;;5.30;;
23628;SDS011;11991;57.150;-2.134;2024-03-06T05:38:51;8.20;;;5.00;;
23628;SDS011;11991;57.150;-2.134;2024-03-06T05:41:36;10.65;;;6.10;;
23628;SDS011;11991;57.150;-2.134;2024-03-06T05:44:20;8.00;;;4.07;;
23628;SDS011;11991;57.150;-2.134;2024-03-06T05:47:05;11.50;;;4.85;;
23628;SDS011;11991;57.150;-2.134;2024-03-06T05:49:51;11.45;;;4.82;;
23628;SDS011;11991;57.150;-2.134;2024-03-06T05:52:35;20.15;;;7.10;;
23628;SDS011;11991;57.150;-2.134;2024-03-06T05:55:20;14.02;;;6.20;;
23628;SDS011;11991;57.150;-2.134;2024-03-06T05:58:05;16.45;;;7.72;;
23628;SDS011;11991;57.150;-2.134;2024-03-06T06:00:38;5.80;;;4.00;;
23628;SDS011;11991;57.150;-2.134;2024-03-06T06:03:07;9.70;;;5.25;;
23628;SDS011;11991;57.150;-2.134;2024-03-06T06:05:35;11.75;;;6.75;;
23628;SDS011;11991;57.150;-2.134;2024-03-06T06:08:03;12.68;;;6.07;;
23628;SDS011;11991;57.150;-2.134;2024-03-06T06:10:31;12.82;;;6.53;;
23628;SDS011;11991;57.150;-2.134;2024-03-06T06:12:58;10.32;;;4.60;;
23628;SDS011;11991;57.150;-2.134;2024-03-06T06:15:26;9.82;;;4.95;;
23628;SDS011;11991;57.150;-2.134;2024-03-06T06:17:53;13.27;;;6.05;;
23628;SDS011;11991;57.150;-2.134;2024-03-06T06:20:21;12.35;;;6.20;;
23628;SDS011;11991;57.150;-2.134;2024-03-06T06:22:48;12.77;;;5.63;;
23628;SDS011;11991;57.150;-2.134;2024-03-06T06:25:15;13.07;;;5.45;;
23628;SDS011;11991;57.150;-2.134;2024-03-06T06:27:42;9.95;;;5.00;;
23628;SDS011;11991;57.150;-2.134;2024-03-06T06:30:10;10.60;;;5.65;;
23628;SDS011;11991;57.150;-2.134;2024-03-06T06:32:39;8.88;;;4.95;;
23628;SDS011;11991;57.150;-2.134;2024-03-06T06:35:09;11.15;;;5.28;;
23628;SDS011;11991;57.150;-2.134;2024-03-06T06:37:38;14.07;;;6.25;;
23628;SDS011;11991;57.150;-2.134;2024-03-06T06:40:06;11.52;;;5.13;;
23628;SDS011;11991;57.150;-2.134;2024-03-06T06:42:35;9.02;;;4.15;;
23628;SDS011;11991;57.150;-2.134;2024-03-06T06:45:03;9.40;;;4.88;;
23628;SDS011;11991;57.150;-2.134;2024-03-06T06:47:33;9.98;;;4.55;;
23628;SDS011;11991;57.150;-2.134;2024-03-06T06:50:01;8.05;;;4.35;;
23628;SDS011;11991;57.150;-2.134;2024-03-06T06:52:32;7.35;;;4.40;;
23628;SDS011;11991;57.150;-2.134;2024-03-06T06:55:01;8.52;;;4.85;;
23628;SDS011;11991;57.150;-2.134;2024-03-06T06:57:29;7.32;;;3.63;;
23628;SDS011;11991;57.150;-2.134;2024-03-06T06:59:57;8.18;;;4.07;;
23628;SDS011;11991;57.150;-2.134;2024-03-06T07:02:24;8.00;;;3.92;;
23628;SDS011;11991;57.150;-2.134;2024-03-06T07:04:51;8.95;;;5.18;;
23628;SDS011;11991;57.150;-2.134;2024-03-06T07:07:19;12.88;;;6.55;;
23628;SDS011;11991;57.150;-2.134;2024-03-06T07:09:48;10.23;;;5.70;;
23628;SDS011;11991;57.150;-2.134;2024-03-06T07:12:15;8.20;;;4.78;;
23628;SDS011;11991;57.150;-2.134;2024-03-06T07:14:42;13.18;;;5.60;;
23628;SDS011;11991;57.150;-2.134;2024-03-06T07:17:10;6.93;;;4.00;;
23628;SDS011;11991;57.150;-2.134;2024-03-06T07:19:37;8.63;;;4.43;;
23628;SDS011;11991;57.150;-2.134;2024-03-06T07:22:04;10.18;;;5.32;;
23628;SDS011;11991;57.150;-2.134;2024-03-06T07:24:31;9.95;;;4.50;;
23628;SDS011;11991;57.150;-2.134;2024-03-06T07:27:02;9.43;;;5.03;;
23628;SDS011;11991;57.150;-2.134;2024-03-06T07:29:30;6.82;;;3.70;;
23628;SDS011;11991;57.150;-2.134;2024-03-06T07:31:57;12.85;;;5.30;;
23628;SDS011;11991;57.150;-2.134;2024-03-06T07:34:24;11.93;;;4.68;;
23628;SDS011;11991;57.150;-2.134;2024-03-06T07:36:51;8.55;;;4.57;;
23628;SDS011;11991;57.150;-2.134;2024-03-06T07:39:19;16.45;;;5.88;;
23628;SDS011;11991;57.150;-2.134;2024-03-06T07:41:46;9.60;;;4.93;;
23628;SDS011;11991;57.150;-2.134;2024-03-06T07:44:14;7.57;;;3.60;;
23628;SDS011;11991;57.150;-2.134;2024-03-06T07:46:41;8.32;;;4.45;;
23628;SDS011;11991;57.150;-2.134;2024-03-06T07:49:08;9.07;;;4.00;;
23628;SDS011;11991;57.150;-2.134;2024-03-06T07:51:35;8.73;;;4.18;;
23628;SDS011;11991;57.150;-2.134;2024-03-06T07:54:03;9.75;;;4.65;;
23628;SDS011;11991;57.150;-2.134;2024-03-06T07:56:33;9.18;;;3.97;;
23628;SDS011;11991;57.150;-2.134;2024-03-06T07:59:01;8.23;;;3.58;;
23628;SDS011;11991;57.150;-2.134;2024-03-06T08:01:28;5.63;;;3.58;;
23628;SDS011;11991;57.150;-2.134;2024-03-06T08:03:55;4.45;;;2.58;;
23628;SDS011;11991;57.150;-2.134;2024-03-06T08:06:23;9.70;;;4.32;;
23628;SDS011;11991;57.150;-2.134;2024-03-06T08:08:50;12.15;;;5.40;;
23628;SDS011;11991;57.150;-2.134;2024-03-06T08:11:18;10.88;;;3.63;;
23628;SDS011;11991;57.150;-2.134;2024-03-06T08:13:48;6.55;;;3.92;;
23628;SDS011;11991;57.150;-2.134;2024-03-06T08:16:16;6.53;;;3.47;;
23628;SDS011;11991;57.150;-2.134;2024-03-06T08:18:44;6.00;;;3.33;;
23628;SDS011;11991;57.150;-2.134;2024-03-06T08:21:11;12.55;;;3.75;;
23628;SDS011;11991;57.150;-2.134;2024-03-06T08:23:38;4.95;;;2.85;;
23628;SDS011;11991;57.150;-2.134;2024-03-06T08:26:05;7.00;;;3.78;;
23628;SDS011;11991;57.150;-2.134;2024-03-06T08:28:33;9.10;;;4.20;;
23628;SDS011;11991;57.150;-2.134;2024-03-06T08:31:00;7.20;;;4.25;;
23628;SDS011;11991;57.150;-2.134;2024-03-06T08:33:27;5.38;;;2.92;;
23628;SDS011;11991;57.150;-2.134;2024-03-06T08:35:55;8.13;;;3.72;;
23628;SDS011;11991;57.150;-2.134;2024-03-06T08:38:22;5.68;;;3.55;;
23628;SDS011;11991;57.150;-2.134;2024-03-06T08:40:50;8.80;;;3.85;;
23628;SDS011;11991;57.150;-2.134;2024-03-06T08:43:17;10.20;;;4.38;;
23628;SDS011;11991;57.150;-2.134;2024-03-06T08:45:46;5.35;;;3.17;;
23628;SDS011;11991;57.150;-2.134;2024-03-06T08:48:13;7.32;;;3.67;;
23628;SDS011;11991;57.150;-2.134;2024-03-06T08:50:40;8.18;;;3.78;;
23628;SDS011;11991;57.150;-2.134;2024-03-06T08:53:07;4.85;;;2.60;;
23628;SDS011;11991;57.150;-2.134;2024-03-06T08:55:36;5.97;;;3.25;;
23628;SDS011;11991;57.150;-2.134;2024-03-06T08:58:03;7.70;;;4.25;;
23628;SDS011;11991;57.150;-2.134;2024-03-06T09:00:30;7.13;;;3.03;;
23628;SDS011;11991;57.150;-2.134;2024-03-06T09:02:58;8.40;;;3.80;;
23628;SDS011;11991;57.150;-2.134;2024-03-06T09:05:25;5.35;;;3.33;;
23628;SDS011;11991;57.150;-2.134;2024-03-06T09:07:53;5.47;;;2.67;;
23628;SDS011;11991;57.150;-2.134;2024-03-06T09:10:20;5.90;;;3.45;;
23628;SDS011;11991;57.150;-2.134;2024-03-06T09:12:47;6.70;;;3.22;;
23628;SDS011;11991;57.150;-2.134;2024-03-06T09:15:17;7.93;;;4.00;;
23628;SDS011;11991;57.150;-2.134;2024-03-06T09:17:44;11.02;;;4.93;;
23628;SDS011;11991;57.150;-2.134;2024-03-06T09:20:13;6.97;;;3.78;;
23628;SDS011;11991;57.150;-2.134;2024-03-06T09:22:42;7.65;;;3.22;;
23628;SDS011;11991;57.150;-2.134;2024-03-06T09:25:10;4.95;;;3.25;;
23628;SDS011;11991;57.150;-2.134;2024-03-06T09:27:42;5.85;;;3.10;;
23628;SDS011;11991;57.150;-2.134;2024-03-06T09:30:10;5.63;;;2.70;;
23628;SDS011;11991;57.150;-2.134;2024-03-06T09:32:40;6.38;;;3.42;;
23628;SDS011;11991;57.150;-2.134;2024-03-06T09:35:08;6.45;;;3.22;;
23628;SDS011;11991;57.150;-2.134;2024-03-06T09:37:35;6.35;;;3.50;;
23628;SDS011;11991;57.150;-2.134;2024-03-06T09:40:03;8.50;;;3.95;;
23628;SDS011;11991;57.150;-2.134;2024-03-06T09:42:30;6.60;;;2.65;;
23628;SDS011;11991;57.150;-2.134;2024-03-06T09:44:57;4.70;;;2.60;;
23628;SDS011;11991;57.150;-2.134;2024-03-06T09:47:24;3.92;;;2.47;;
23628;SDS011;11991;57.150;-2.134;2024-03-06T09:49:56;4.15;;;2.90;;
23628;SDS011;11991;57.150;-2.134;2024-03-06T09:52:23;9.05;;;3.78;;
23628;SDS011;11991;57.150;-2.134;2024-03-06T09:54:53;4.80;;;3.05;;
23628;SDS011;11991;57.150;-2.134;2024-03-06T09:57:21;4.70;;;2.88;;
23628;SDS011;11991;57.150;-2.134;2024-03-06T09:59:48;4.82;;;2.78;;
23628;SDS011;11991;57.150;-2.134;2024-03-06T10:05:01;5.30;;;3.55;;
23628;SDS011;11991;57.150;-2.134;2024-03-06T10:07:29;5.65;;;2.80;;
23628;SDS011;11991;57.150;-2.134;2024-03-06T10:09:56;3.53;;;2.17;;
23628;SDS011;11991;57.150;-2.134;2024-03-06T10:12:24;3.88;;;2.78;;
23628;SDS011;11991;57.150;-2.134;2024-03-06T10:14:56;6.13;;;2.67;;
23628;SDS011;11991;57.150;-2.134;2024-03-06T10:17:24;5.13;;;3.30;;
23628;SDS011;11991;57.150;-2.134;2024-03-06T10:19:54;5.55;;;2.47;;
23628;SDS011;11991;57.150;-2.134;2024-03-06T10:22:25;5.03;;;2.65;;
23628;SDS011;11991;57.150;-2.134;2024-03-06T10:24:55;4.28;;;2.95;;
23628;SDS011;11991;57.150;-2.134;2024-03-06T10:27:23;4.55;;;2.45;;
23628;SDS011;11991;57.150;-2.134;2024-03-06T10:30:12;5.07;;;2.92;;
23628;SDS011;11991;57.150;-2.134;2024-03-06T10:32:42;4.32;;;2.55;;
23628;SDS011;11991;57.150;-2.134;2024-03-06T10:35:17;3.00;;;2.55;;
23628;SDS011;11991;57.150;-2.134;2024-03-06T10:37:45;4.55;;;3.03;;
23628;SDS011;11991;57.150;-2.134;2024-03-06T10:40:14;5.05;;;2.88;;
23628;SDS011;11991;57.150;-2.134;2024-03-06T10:42:43;5.03;;;2.80;;
23628;SDS011;11991;57.150;-2.134;2024-03-06T10:45:14;5.13;;;2.83;;
23628;SDS011;11991;57.150;-2.134;2024-03-06T10:47:45;5.30;;;2.95;;
23628;SDS011;11991;57.150;-2.134;2024-03-06T10:50:17;4.95;;;2.83;;
23628;SDS011;11991;57.150;-2.134;2024-03-06T10:52:46;7.55;;;3.00;;
23628;SDS011;11991;57.150;-2.134;2024-03-06T10:55:16;3.13;;;2.42;;
23628;SDS011;11991;57.150;-2.134;2024-03-06T10:57:44;4.82;;;2.45;;
23628;SDS011;11991;57.150;-2.134;2024-03-06T11:00:14;6.35;;;3.60;;
23628;SDS011;11991;57.150;-2.134;2024-03-06T11:02:46;3.45;;;2.38;;
23628;SDS011;11991;57.150;-2.134;2024-03-06T11:05:16;4.85;;;3.30;;
23628;SDS011;11991;57.150;-2.134;2024-03-06T11:07:43;3.40;;;2.38;;
23628;SDS011;11991;57.150;-2.134;2024-03-06T11:10:11;4.78;;;2.85;;
23628;SDS011;11991;57.150;-2.134;2024-03-06T11:12:44;4.55;;;3.03;;
23628;SDS011;11991;57.150;-2.134;2024-03-06T11:15:15;5.20;;;2.83;;
23628;SDS011;11991;57.150;-2.134;2024-03-06T11:17:43;3.90;;;2.45;;
23628;SDS011;11991;57.150;-2.134;2024-03-06T11:20:15;4.38;;;2.42;;
23628;SDS011;11991;57.150;-2.134;2024-03-06T11:28:25;5.53;;;2.95;;
23628;SDS011;11991;57.150;-2.134;2024-03-06T11:33:27;8.93;;;3.55;;
23628;SDS011;11991;57.150;-2.134;2024-03-06T11:36:26;7.22;;;3.50;;
23628;SDS011;11991;57.150;-2.134;2024-03-06T11:39:07;6.10;;;3.42;;
23628;SDS011;11991;57.150;-2.134;2024-03-06T11:44:21;5.50;;;3.00;;
23628;SDS011;11991;57.150;-2.134;2024-03-06T11:46:56;6.35;;;3.50;;
23628;SDS011;11991;57.150;-2.134;2024-03-06T11:49:28;4.55;;;2.47;;
23628;SDS011;11991;57.150;-2.134;2024-03-06T11:52:05;4.22;;;2.95;;
23628;SDS011;11991;57.150;-2.134;2024-03-06T11:54:34;9.07;;;3.83;;
23628;SDS011;11991;57.150;-2.134;2024-03-06T11:57:02;4.15;;;2.65;;
23628;SDS011;11991;57.150;-2.134;2024-03-06T11:59:34;7.55;;;4.05;;
23628;SDS011;11991;57.150;-2.134;2024-03-06T12:02:05;4.38;;;2.88;;
23628;SDS011;11991;57.150;-2.134;2024-03-06T12:04:34;5.47;;;2.67;;
23628;SDS011;11991;57.150;-2.134;2024-03-06T12:07:06;6.13;;;3.67;;
23628;SDS011;11991;57.150;-2.134;2024-03-06T12:09:35;6.55;;;3.15;;
23628;SDS011;11991;57.150;-2.134;2024-03-06T12:12:08;5.38;;;3.28;;
23628;SDS011;11991;57.150;-2.134;2024-03-06T12:14:39;5.50;;;3.45;;
23628;SDS011;11991;57.150;-2.134;2024-03-06T12:17:11;4.85;;;3.20;;
23628;SDS011;11991;57.150;-2.134;2024-03-06T12:19:42;8.65;;;3.80;;
23628;SDS011;11991;57.150;-2.134;2024-03-06T12:22:12;5.38;;;3.40;;
23628;SDS011;11991;57.150;-2.134;2024-03-06T12:24:41;8.02;;;5.13;;
23628;SDS011;11991;57.150;-2.134;2024-03-06T12:27:09;5.72;;;3.35;;
23628;SDS011;11991;57.150;-2.134;2024-03-06T12:29:38;5.60;;;2.78;;
23628;SDS011;11991;57.150;-2.134;2024-03-06T12:32:15;9.40;;;3.80;;
23628;SDS011;11991;57.150;-2.134;2024-03-06T12:34:55;8.55;;;4.65;;
23628;SDS011;11991;57.150;-2.134;2024-03-06T12:37:31;6.20;;;3.85;;
23628;SDS011;11991;57.150;-2.134;2024-03-06T12:40:00;5.00;;;3.38;;
23628;SDS011;11991;57.150;-2.134;2024-03-06T12:42:31;6.65;;;2.92;;
23628;SDS011;11991;57.150;-2.134;2024-03-06T12:44:59;3.83;;;3.10;;
23628;SDS011;11991;57.150;-2.134;2024-03-06T12:47:26;4.20;;;2.67;;
23628;SDS011;11991;57.150;-2.134;2024-03-06T12:49:54;5.50;;;3.20;;
23628;SDS011;11991;57.150;-2.134;2024-03-06T12:52:21;4.57;;;2.75;;
23628;SDS011;11991;57.150;-2.134;2024-03-06T12:54:48;6.03;;;2.97;;
23628;SDS011;11991;57.150;-2.134;2024-03-06T12:57:16;5.63;;;3.03;;
23628;SDS011;11991;57.150;-2.134;2024-03-06T12:59:44;4.20;;;3.05;;
23628;SDS011;11991;57.150;-2.134;2024-03-06T13:02:11;6.32;;;4.03;;
23628;SDS011;11991;57.150;-2.134;2024-03-06T13:04:39;5.78;;;3.15;;
23628;SDS011;11991;57.150;-2.134;2024-03-06T13:07:06;5.05;;;2.88;;
23628;SDS011;11991;57.150;-2.134;2024-03-06T13:09:33;4.90;;;2.53;;
23628;SDS011;11991;57.150;-2.134;2024-03-06T13:12:00;8.48;;;3.75;;
23628;SDS011;11991;57.150;-2.134;2024-03-06T13:14:29;6.70;;;3.53;;
23628;SDS011;11991;57.150;-2.134;2024-03-06T13:16:57;4.70;;;2.92;;
23628;SDS011;11991;57.150;-2.134;2024-03-06T13:19:24;3.75;;;2.33;;
23628;SDS011;11991;57.150;-2.134;2024-03-06T13:21:51;4.30;;;2.60;;
23628;SDS011;11991;57.150;-2.134;2024-03-06T13:24:19;8.15;;;4.57;;
23628;SDS011;11991;57.150;-2.134;2024-03-06T13:26:46;5.70;;;3.03;;
23628;SDS011;11991;57.150;-2.134;2024-03-06T13:29:14;5.85;;;3.33;;
23628;SDS011;11991;57.150;-2.134;2024-03-06T13:31:41;4.35;;;2.78;;
23628;SDS011;11991;57.150;-2.134;2024-03-06T13:34:08;5.80;;;2.80;;
23628;SDS011;11991;57.150;-2.134;2024-03-06T13:36:35;5.78;;;3.28;;
23628;SDS011;11991;57.150;-2.134;2024-03-06T13:39:03;4.78;;;3.25;;
23628;SDS011;11991;57.150;-2.134;2024-03-06T13:41:30;4.03;;;2.65;;
23628;SDS011;11991;57.150;-2.134;2024-03-06T13:43:57;6.15;;;4.05;;
23628;SDS011;11991;57.150;-2.134;2024-03-06T13:46:24;5.13;;;2.95;;
23628;SDS011;11991;57.150;-2.134;2024-03-06T13:48:52;4.53;;;3.05;;
23628;SDS011;11991;57.150;-2.134;2024-03-06T13:51:19;8.80;;;3.40;;
23628;SDS011;11991;57.150;-2.134;2024-03-06T13:53:46;6.00;;;3.35;;
23628;SDS011;11991;57.150;-2.134;2024-03-06T13:56:13;10.32;;;4.50;;
23628;SDS011;11991;57.150;-2.134;2024-03-06T13:58:40;4.78;;;2.83;;
23628;SDS011;11991;57.150;-2.134;2024-03-06T14:01:08;6.60;;;3.20;;
23628;SDS011;11991;57.150;-2.134;2024-03-06T14:03:35;3.72;;;2.90;;
23628;SDS011;11991;57.150;-2.134;2024-03-06T14:06:04;6.70;;;3.45;;
23628;SDS011;11991;57.150;-2.134;2024-03-06T14:08:33;6.30;;;3.33;;
23628;SDS011;11991;57.150;-2.134;2024-03-06T14:11:01;5.88;;;3.38;;
23628;SDS011;11991;57.150;-2.134;2024-03-06T14:13:31;5.10;;;3.35;;
23628;SDS011;11991;57.150;-2.134;2024-03-06T14:15:59;9.35;;;4.18;;
23628;SDS011;11991;57.150;-2.134;2024-03-06T14:18:27;3.88;;;2.63;;
23628;SDS011;11991;57.150;-2.134;2024-03-06T14:20:55;4.10;;;2.90;;
23628;SDS011;11991;57.150;-2.134;2024-03-06T14:23:22;5.22;;;2.85;;
23628;SDS011;11991;57.150;-2.134;2024-03-06T14:25:49;4.15;;;2.55;;
23628;SDS011;11991;57.150;-2.134;2024-03-06T14:28:17;5.95;;;3.53;;
23628;SDS011;11991;57.150;-2.134;2024-03-06T14:30:44;5.18;;;3.15;;
23628;SDS011;11991;57.150;-2.134;2024-03-06T14:33:11;6.35;;;3.25;;
23628;SDS011;11991;57.150;-2.134;2024-03-06T14:35:39;6.97;;;4.00;;
23628;SDS011;11991;57.150;-2.134;2024-03-06T14:38:06;5.88;;;3.95;;
23628;SDS011;11991;57.150;-2.134;2024-03-06T14:40:33;8.52;;;3.67;;
23628;SDS011;11991;57.150;-2.134;2024-03-06T14:43:00;11.88;;;5.32;;
23628;SDS011;11991;57.150;-2.134;2024-03-06T14:45:28;5.88;;;3.60;;
23628;SDS011;11991;57.150;-2.134;2024-03-06T14:47:55;5.38;;;3.17;;
23628;SDS011;11991;57.150;-2.134;2024-03-06T14:50:22;6.32;;;3.92;;
23628;SDS011;11991;57.150;-2.134;2024-03-06T14:52:50;9.32;;;5.30;;
23628;SDS011;11991;57.150;-2.134;2024-03-06T14:55:17;7.30;;;4.75;;